createdAt,value
2022-08-03T00:02:19.815Z,98775.75
2022-08-03T00:04:47.673Z,98785.84
2022-08-03T00:07:15.141Z,98783.44
2022-08-03T00:09:42.308Z,98779.09
2022-08-03T00:12:09.593Z,98778.06
2022-08-03T00:14:36.482Z,98767.56
2022-08-03T00:17:03.833Z,98770.59
2022-08-03T00:19:30.971Z,98774.59
2022-08-03T00:21:57.843Z,98772.19
2022-08-03T00:24:24.942Z,98770.50
2022-08-03T00:26:52.279Z,98769.63
2022-08-03T00:29:19.300Z,98768.13
2022-08-03T00:31:52.593Z,98764.34
2022-08-03T00:34:36.268Z,98767.19
2022-08-03T00:37:10.939Z,98767.19
2022-08-03T00:39:37.877Z,98767.03
2022-08-03T00:42:06.054Z,98770.03
2022-08-03T00:44:43.502Z,98765.91
2022-08-03T00:47:11.577Z,98765.22
2022-08-03T00:49:41.330Z,98761.16
2022-08-03T00:52:15.378Z,98761.97
2022-08-03T00:54:42.764Z,98760.41
2022-08-03T00:57:10.035Z,98762.56
2022-08-03T00:59:38.470Z,98763.72
2022-08-03T01:02:06.493Z,98770.25
2022-08-03T01:04:33.614Z,98769.56
2022-08-03T01:07:19.767Z,98766.88
2022-08-03T01:10:10.291Z,98761.78
2022-08-03T01:14:01.210Z,98766.31
2022-08-03T01:16:48.961Z,98764.22
2022-08-03T01:19:41.804Z,98769.78
2022-08-03T01:22:37.135Z,98765.66
2022-08-03T01:25:54.241Z,98767.81
2022-08-03T01:29:01.656Z,98767.84
2022-08-03T01:32:54.498Z,98756.50
2022-08-03T01:35:14.445Z,98764.72
2022-08-03T01:37:51.328Z,98764.03
2022-08-03T01:40:22.123Z,98765.19
2022-08-03T01:42:51.713Z,98759.22
2022-08-03T01:45:21.751Z,98762.25
2022-08-03T01:47:51.485Z,98761.50
2022-08-03T01:50:24.958Z,98757.44
2022-08-03T01:52:54.715Z,98765.09
2022-08-03T01:55:25.067Z,98769.78
2022-08-03T01:58:05.489Z,98768.19
2022-08-03T02:00:37.640Z,98764.66
2022-08-03T02:03:10.194Z,98755.75
2022-08-03T02:05:40.142Z,98757.88
2022-08-03T02:08:12.967Z,98754.47
2022-08-03T02:10:43.507Z,98757.44
2022-08-03T02:13:11.305Z,98753.91
2022-08-03T02:15:39.937Z,98752.25
2022-08-03T02:18:11.107Z,98753.91
2022-08-03T02:20:41.933Z,98751.22
2022-08-03T02:23:09.942Z,98757.16
2022-08-03T02:25:47.115Z,98752.66
2022-08-03T02:28:21.309Z,98754.63
2022-08-03T02:30:55.193Z,98745.84
2022-08-03T02:33:38.343Z,98755.63
2022-08-03T02:36:07.963Z,98754.06
2022-08-03T02:38:42.684Z,98747.84
2022-08-03T02:41:21.151Z,98748.69
2022-08-03T02:44:06.403Z,98754.66
2022-08-03T02:46:38.899Z,98756.44
2022-08-03T02:49:40.571Z,98759.03
2022-08-03T02:51:58.943Z,98750.97
2022-08-03T02:54:28.207Z,98753.19
2022-08-03T02:56:58.920Z,98752.22
2022-08-03T02:59:31.300Z,98750.78
2022-08-03T03:02:02.327Z,98756.75
2022-08-03T03:04:33.183Z,98752.22
2022-08-03T03:07:01.779Z,98751.78
2022-08-03T03:09:40.344Z,98753.63
2022-08-03T03:12:12.667Z,98754.19
2022-08-03T03:14:40.219Z,98755.34
2022-08-03T03:17:10.463Z,98761.25
2022-08-03T03:19:41.450Z,98758.16
2022-08-03T03:22:10.058Z,98762.69
2022-08-03T03:24:39.894Z,98768.31
2022-08-03T03:27:08.844Z,98770.03
2022-08-03T03:29:39.374Z,98766.22
2022-08-03T03:32:08.458Z,98776.13
2022-08-03T03:34:37.574Z,98772.28
2022-08-03T03:37:05.341Z,98765.59
2022-08-03T03:39:32.489Z,98768.13
2022-08-03T03:42:01.169Z,98770.44
2022-08-03T03:44:30.287Z,98769.31
2022-08-03T03:47:00.193Z,98777.09
2022-08-03T03:49:27.649Z,98772.56
2022-08-03T03:51:55.761Z,98774.56
2022-08-03T03:54:25.539Z,98769.44
2022-08-03T03:56:56.732Z,98778.84
2022-08-03T04:01:58.869Z,98780.84
2022-08-03T04:04:44.921Z,98777.03
2022-08-03T04:07:30.424Z,98778.63
2022-08-03T04:10:16.500Z,98782.19
2022-08-03T04:12:49.960Z,98783.16
2022-08-03T04:15:24.398Z,98787.25
2022-08-03T04:17:58.027Z,98785.56
2022-08-03T04:20:32.716Z,98790.38
2022-08-03T04:23:02.893Z,98791.44
2022-08-03T04:25:42.901Z,98780.97
2022-08-03T04:28:30.451Z,98791.72
2022-08-03T04:31:07.542Z,98796.44
2022-08-03T04:33:38.909Z,98794.97
2022-08-03T04:36:10.905Z,98799.50
2022-08-03T04:38:54.403Z,98797.09
2022-08-03T04:41:25.714Z,98794.84
2022-08-03T04:43:57.383Z,98794.53
2022-08-03T04:46:31.067Z,98798.09
2022-08-03T04:48:59.905Z,98799.78
2022-08-03T04:51:27.928Z,98805.84
2022-08-03T04:53:54.793Z,98803.59
2022-08-03T04:56:22.085Z,98811.25
2022-08-03T04:58:49.327Z,98818.44
2022-08-03T05:01:16.884Z,98815.81
2022-08-03T05:03:43.748Z,98820.09
2022-08-03T05:06:11.325Z,98826.31
2022-08-03T05:08:46.087Z,98817.41
2022-08-03T05:11:16.401Z,98826.59
2022-08-03T05:13:45.192Z,98823.22
2022-08-03T05:16:13.971Z,98818.56
2022-08-03T05:18:43.091Z,98827.06
2022-08-03T05:21:10.934Z,98827.78
2022-08-03T05:23:38.148Z,98828.19
2022-08-03T05:26:05.435Z,98821.69
2022-08-03T05:28:32.283Z,98832.88
2022-08-03T05:30:59.132Z,98821.56
2022-08-03T05:33:26.211Z,98822.97
2022-08-03T05:35:56.157Z,98830.34
2022-08-03T05:38:34.280Z,98823.69
2022-08-03T05:41:21.021Z,98827.09
2022-08-03T05:43:53.968Z,98826.09
2022-08-03T05:46:23.859Z,98826.50
2022-08-03T05:48:52.145Z,98816.22
2022-08-03T05:51:19.596Z,98830.81
2022-08-03T05:53:46.536Z,98832.34
2022-08-03T05:56:16.296Z,98828.41
2022-08-03T05:58:47.745Z,98822.72
2022-08-03T06:01:17.219Z,98831.94
2022-08-03T06:03:46.307Z,98829.38
2022-08-03T06:06:13.820Z,98830.34
2022-08-03T06:08:42.996Z,98826.22
2022-08-03T06:11:10.408Z,98827.31
2022-08-03T06:13:38.120Z,98824.34
2022-08-03T06:16:05.542Z,98821.22
2022-08-03T06:18:32.778Z,98827.72
2022-08-03T06:21:09.507Z,98822.03
2022-08-03T06:23:53.851Z,98830.13
2022-08-03T06:26:28.159Z,98831.38
2022-08-03T06:28:55.939Z,98833.22
2022-08-03T06:31:33.226Z,98829.50
2022-08-03T06:34:34.393Z,98831.38
2022-08-03T06:36:52.173Z,98838.00
2022-08-03T06:39:19.810Z,98837.84
2022-08-03T06:41:46.658Z,98835.16
2022-08-03T06:44:14.296Z,98840.25
2022-08-03T06:46:44.134Z,98839.41
2022-08-03T06:49:11.059Z,98845.22
2022-08-03T06:52:37.069Z,98838.50
2022-08-03T06:54:25.250Z,98847.09
2022-08-03T06:56:52.194Z,98848.59
2022-08-03T07:00:07.393Z,98852.44
2022-08-03T07:02:06.133Z,98851.28
2022-08-03T07:04:33.433Z,98850.16
2022-08-03T07:07:00.410Z,98849.84
2022-08-03T07:09:28.152Z,98848.25
2022-08-03T07:11:55.483Z,98848.97
2022-08-03T07:14:22.637Z,98848.53
2022-08-03T07:16:49.969Z,98850.78
2022-08-03T07:19:17.312Z,98846.47
2022-08-03T07:21:45.434Z,98843.78
2022-08-03T07:24:12.541Z,98851.56
2022-08-03T07:26:39.667Z,98849.41
2022-08-03T07:29:11.751Z,98849.19
2022-08-03T07:31:42.900Z,98844.78
2022-08-03T07:34:09.884Z,98851.25
2022-08-03T07:36:37.000Z,98848.09
2022-08-03T07:39:16.695Z,98855.59
2022-08-03T07:41:46.196Z,98843.84
2022-08-03T07:44:14.639Z,98856.47
2022-08-03T07:46:43.038Z,98849.28
2022-08-03T07:49:12.825Z,98851.03
2022-08-03T07:51:40.838Z,98847.03
2022-08-03T07:54:10.322Z,98847.72
2022-08-03T07:56:37.973Z,98848.91
2022-08-03T07:59:05.137Z,98851.16
2022-08-03T08:01:34.181Z,98847.84
2022-08-03T08:04:01.115Z,98849.72
2022-08-03T08:06:28.309Z,98848.94
2022-08-03T08:08:59.684Z,98852.53
2022-08-03T08:11:26.892Z,98833.19
2022-08-03T08:13:54.200Z,98835.22
2022-08-03T08:16:21.450Z,98836.59
2022-08-03T08:18:48.556Z,98839.50
2022-08-03T08:21:15.695Z,98836.47
2022-08-03T08:23:48.052Z,98838.53
2022-08-03T08:26:24.629Z,98841.44
2022-08-03T08:28:52.842Z,98840.78
2022-08-03T08:31:19.899Z,98839.28
2022-08-03T08:34:03.926Z,98835.06
2022-08-03T08:36:35.709Z,98832.38
2022-08-03T08:39:03.734Z,98830.59
2022-08-03T08:41:33.832Z,98833.63
2022-08-03T08:44:04.686Z,98834.69
2022-08-03T08:46:34.618Z,98840.09
2022-08-03T08:49:04.673Z,98838.75
2022-08-03T08:51:59.827Z,98838.28
2022-08-03T08:54:29.894Z,98829.63
2022-08-03T08:57:02.725Z,98828.31
2022-08-03T08:59:48.774Z,98826.59
2022-08-03T09:02:17.090Z,98834.56
2022-08-03T09:04:48.967Z,98830.50
2022-08-03T09:07:20.711Z,98826.81
2022-08-03T09:10:07.586Z,98829.53
2022-08-03T09:12:46.112Z,98832.41
2022-08-03T09:15:25.483Z,98827.31
2022-08-03T09:17:56.409Z,98820.38
2022-08-03T09:20:28.007Z,98817.97
2022-08-03T09:23:26.248Z,98817.47
2022-08-03T09:25:59.833Z,98819.31
2022-08-03T09:29:01.143Z,98817.59
2022-08-03T09:31:43.154Z,98817.56
2022-08-03T09:34:17.143Z,98815.22
2022-08-03T09:36:50.846Z,98821.47
2022-08-03T09:39:40.796Z,98818.56
2022-08-03T09:42:18.279Z,98811.78
2022-08-03T09:44:48.015Z,98807.88
2022-08-03T09:47:31.056Z,98802.59
2022-08-03T09:50:08.954Z,98804.44
2022-08-03T09:52:52.032Z,98806.94
2022-08-03T09:56:34.645Z,98801.81
2022-08-03T09:58:14.302Z,98800.25
2022-08-03T10:00:56.111Z,98801.56
2022-08-03T10:03:25.746Z,98801.22
2022-08-03T10:05:57.473Z,98802.78
2022-08-03T10:08:26.755Z,98804.97
2022-08-03T10:10:58.762Z,98800.19
2022-08-03T10:13:25.924Z,98803.22
2022-08-03T10:16:24.145Z,98802.47
2022-08-03T10:18:40.070Z,98803.31
2022-08-03T10:21:12.654Z,98805.63
2022-08-03T10:23:41.959Z,98797.59
2022-08-03T10:26:16.287Z,98792.69
2022-08-03T10:28:50.348Z,98802.16
2022-08-03T10:31:22.309Z,98798.72
2022-08-03T10:33:53.283Z,98792.72
2022-08-03T10:36:24.823Z,98788.63
2022-08-03T10:38:53.860Z,98791.66
2022-08-03T10:41:32.459Z,98787.19
2022-08-03T10:44:15.793Z,98783.91
2022-08-03T10:46:45.504Z,98782.16
2022-08-03T10:49:34.355Z,98774.47
2022-08-03T10:52:11.359Z,98779.16
2022-08-03T10:55:11.082Z,98779.81
2022-08-03T10:57:58.120Z,98781.13
2022-08-03T11:00:28.512Z,98772.97
2022-08-03T11:03:11.471Z,98773.84
2022-08-03T11:05:44.610Z,98771.22
2022-08-03T11:08:31.815Z,98764.66
2022-08-03T11:11:02.974Z,98763.94
2022-08-03T11:13:33.554Z,98766.75
2022-08-03T11:16:21.504Z,98772.66
2022-08-03T11:19:02.757Z,98767.97
2022-08-03T11:21:49.506Z,98766.13
2022-08-03T11:25:07.668Z,98766.75
2022-08-03T11:27:36.062Z,98763.44
2022-08-03T11:30:27.654Z,98760.00
2022-08-03T11:32:58.801Z,98751.72
2022-08-03T11:35:35.847Z,98755.56
2022-08-03T11:38:09.032Z,98755.84
2022-08-03T11:40:42.146Z,98758.44
2022-08-03T11:43:31.304Z,98750.19
2022-08-03T11:46:00.051Z,98744.56
2022-08-03T11:48:43.566Z,98752.25
2022-08-03T11:51:26.607Z,98749.19
2022-08-03T11:54:06.642Z,98747.78
2022-08-03T11:56:50.685Z,98744.69
2022-08-03T11:59:21.557Z,98741.78
2022-08-03T12:01:50.838Z,98740.91
2022-08-03T12:04:17.780Z,98730.69
2022-08-03T12:07:00.451Z,98739.56
2022-08-03T12:09:27.557Z,98739.19
2022-08-03T12:12:00.168Z,98733.53
2022-08-03T12:14:49.909Z,98725.78
2022-08-03T12:17:19.055Z,98731.41
2022-08-03T12:19:46.364Z,98726.91
2022-08-03T12:22:13.723Z,98728.34
2022-08-03T12:24:43.233Z,98731.38
2022-08-03T12:27:10.298Z,98722.06
2022-08-03T12:29:37.514Z,98722.25
2022-08-03T12:32:05.120Z,98714.69
2022-08-03T12:34:49.630Z,98714.81
2022-08-03T12:37:23.362Z,98713.00
2022-08-03T12:40:02.329Z,98712.16
2022-08-03T12:42:34.668Z,98716.81
2022-08-03T12:45:26.655Z,98710.97
2022-08-03T12:48:02.171Z,98713.94
2022-08-03T12:50:35.307Z,98702.31
2022-08-03T12:53:07.864Z,98701.06
2022-08-03T12:55:56.268Z,98699.84
2022-08-03T12:58:38.863Z,98701.31
2022-08-03T13:01:09.710Z,98696.53
2022-08-03T13:03:50.300Z,98698.63
2022-08-03T13:06:26.864Z,98700.53
2022-08-03T13:09:07.994Z,98700.97
2022-08-03T13:11:55.781Z,98705.44
2022-08-03T13:14:23.668Z,98691.41
2022-08-03T13:16:51.172Z,98695.81
2022-08-03T13:19:18.095Z,98698.41
2022-08-03T13:21:53.849Z,98703.31
2022-08-03T13:24:33.108Z,98698.38
2022-08-03T13:28:01.463Z,98696.59
2022-08-03T13:29:47.979Z,98697.28
2022-08-03T13:32:15.042Z,98696.06
2022-08-03T13:34:42.446Z,98691.88
2022-08-03T13:37:10.210Z,98691.28
2022-08-03T13:39:57.578Z,98693.22
2022-08-03T13:42:26.426Z,98693.22
2022-08-03T13:44:53.819Z,98695.50
2022-08-03T13:47:21.130Z,98692.81
2022-08-03T13:49:54.335Z,98688.03
2022-08-03T13:52:35.227Z,98686.53
2022-08-03T13:55:06.339Z,98692.41
2022-08-03T13:58:02.398Z,98687.81
2022-08-03T14:00:27.946Z,98680.69
2022-08-03T14:03:05.234Z,98678.59
2022-08-03T14:05:38.287Z,98676.25
2022-08-03T14:08:07.332Z,98671.19
2022-08-03T14:10:41.260Z,98672.91
2022-08-03T14:13:09.095Z,98675.22
2022-08-03T14:15:37.856Z,98663.03
2022-08-03T14:18:12.898Z,98660.53
2022-08-03T14:20:50.287Z,98661.75
2022-08-03T14:23:21.579Z,98663.25
2022-08-03T14:25:51.672Z,98664.88
2022-08-03T14:28:23.300Z,98661.97
2022-08-03T14:30:52.447Z,98649.63
2022-08-03T14:33:20.271Z,98653.19
2022-08-03T14:35:48.329Z,98651.09
2022-08-03T14:38:16.360Z,98650.47
2022-08-03T14:40:43.829Z,98653.63
2022-08-03T14:43:10.862Z,98651.53
2022-08-03T14:45:42.082Z,98652.38
2022-08-03T14:50:34.817Z,98642.53
2022-08-03T14:50:56.889Z,98647.16
2022-08-03T14:53:24.925Z,98643.34
2022-08-03T14:55:53.542Z,98652.81
2022-08-03T14:58:22.801Z,98643.19
2022-08-03T15:00:52.788Z,98644.22
2022-08-03T15:03:23.678Z,98639.81
2022-08-03T15:05:57.466Z,98640.44
2022-08-03T15:08:26.647Z,98636.22
2022-08-03T15:10:55.086Z,98638.75
2022-08-03T15:13:22.988Z,98632.25
2022-08-03T15:15:50.045Z,98637.53
2022-08-03T15:18:17.515Z,98629.97
2022-08-03T15:20:46.254Z,98631.66
2022-08-03T15:23:16.006Z,98631.28
2022-08-03T15:26:03.907Z,98633.78
2022-08-03T15:28:34.438Z,98629.00
2022-08-03T15:31:05.954Z,98622.28
2022-08-03T15:33:33.156Z,98617.03
2022-08-03T15:36:02.254Z,98617.25
2022-08-03T15:38:29.556Z,98616.84
2022-08-03T15:40:56.972Z,98616.84
2022-08-03T15:43:24.400Z,98616.63
2022-08-03T15:46:19.469Z,98620.41
2022-08-03T15:48:40.996Z,98620.44
2022-08-03T15:51:10.417Z,98619.59
2022-08-03T15:53:38.571Z,98608.22
2022-08-03T15:56:11.359Z,98612.72
2022-08-03T15:59:09.886Z,98619.28
2022-08-03T16:01:28.595Z,98614.88
2022-08-03T16:03:55.806Z,98616.97
2022-08-03T16:06:35.405Z,98610.81
2022-08-03T16:09:23.494Z,98616.03
2022-08-03T16:11:55.856Z,98605.44
2022-08-03T16:14:34.407Z,98604.59
2022-08-03T16:17:05.485Z,98605.66
2022-08-03T16:19:32.905Z,98606.41
2022-08-03T16:22:00.445Z,98596.44
2022-08-03T16:24:28.308Z,98601.28
2022-08-03T16:26:56.735Z,98592.88
2022-08-03T16:29:24.216Z,98586.16
2022-08-03T16:46:30.082Z,98591.63
2022-08-03T16:48:59.324Z,98584.28
2022-08-03T16:51:26.198Z,98588.50
2022-08-03T16:54:12.461Z,98590.41
2022-08-03T16:56:41.698Z,98590.00
2022-08-03T16:59:08.785Z,98595.88
2022-08-03T17:01:37.954Z,98600.09
2022-08-03T17:04:06.329Z,98603.63
2022-08-03T17:06:45.156Z,98607.38
2022-08-03T17:09:18.143Z,98601.94
2022-08-03T17:11:48.382Z,98607.59
2022-08-03T17:14:22.879Z,98606.97
2022-08-03T17:17:01.603Z,98610.31
2022-08-03T17:19:32.562Z,98604.03
2022-08-03T17:22:04.905Z,98604.00
2022-08-03T17:24:41.414Z,98608.56
2022-08-03T17:27:18.613Z,98611.06
2022-08-03T17:30:10.689Z,98612.09
2022-08-03T17:32:56.603Z,98612.06
2022-08-03T17:35:24.723Z,98609.31
2022-08-03T17:38:06.712Z,98607.59
2022-08-03T17:40:38.050Z,98612.84
2022-08-03T17:45:54.740Z,98606.09
2022-08-03T17:48:25.142Z,98608.56
2022-08-03T17:51:00.493Z,98608.31
2022-08-03T17:53:37.366Z,98612.47
2022-08-03T17:56:44.940Z,98609.31
2022-08-03T17:59:44.361Z,98607.19
2022-08-03T18:03:10.442Z,98607.81
2022-08-03T18:06:11.195Z,98607.56
2022-08-03T18:08:36.461Z,98612.97
2022-08-03T18:11:15.236Z,98616.50
2022-08-03T18:13:58.151Z,98606.19
2022-08-03T18:16:37.700Z,98616.84
2022-08-03T18:19:09.718Z,98609.06
2022-08-03T18:22:03.211Z,98612.19
2022-08-03T18:24:31.077Z,98613.78
2022-08-03T18:27:03.434Z,98620.88
2022-08-03T18:29:31.678Z,98616.00
2022-08-03T18:32:03.745Z,98616.63
2022-08-03T18:34:34.907Z,98617.41
2022-08-03T18:37:04.311Z,98607.28
2022-08-03T18:39:39.043Z,98621.50
2022-08-03T18:42:20.088Z,98619.75
2022-08-03T18:44:56.150Z,98621.19
2022-08-03T18:48:05.149Z,98623.44
2022-08-03T18:50:50.141Z,98619.41
2022-08-03T18:53:21.181Z,98613.50
2022-08-03T18:56:26.372Z,98620.38
2022-08-03T18:59:30.184Z,98621.16
2022-08-03T19:02:06.552Z,98626.53
2022-08-03T19:04:47.483Z,98623.34
2022-08-03T19:07:24.050Z,98628.34
2022-08-03T19:10:10.045Z,98629.75
2022-08-03T19:13:11.348Z,98625.75
2022-08-03T19:15:51.651Z,98628.84
2022-08-03T19:18:21.972Z,98628.38
2022-08-03T19:20:54.642Z,98620.78
2022-08-03T19:23:25.855Z,98626.59
2022-08-03T19:25:54.209Z,98613.63
2022-08-03T19:28:30.000Z,98625.66
2022-08-03T19:31:02.823Z,98622.50
2022-08-03T19:33:57.506Z,98630.19
2022-08-03T19:36:39.576Z,98629.03
2022-08-03T19:39:12.684Z,98620.44
2022-08-03T19:41:47.294Z,98619.13
2022-08-03T19:44:29.795Z,98621.41
2022-08-03T19:47:22.300Z,98620.72
2022-08-03T19:50:05.651Z,98637.03
2022-08-03T19:52:40.307Z,98615.97
2022-08-03T19:55:12.485Z,98622.22
2022-08-03T19:57:46.340Z,98623.44
2022-08-03T20:00:19.973Z,98624.84
2022-08-03T20:02:53.905Z,98620.66
2022-08-03T20:05:20.913Z,98629.00
2022-08-03T20:07:50.550Z,98629.38
2022-08-03T20:10:21.492Z,98626.84
2022-08-03T20:12:49.860Z,98621.78
2022-08-03T20:15:22.195Z,98628.63
2022-08-03T20:17:58.830Z,98626.28
2022-08-03T20:20:34.253Z,98629.38
2022-08-03T20:23:11.276Z,98639.59
2022-08-03T20:25:58.182Z,98635.53
2022-08-03T20:28:56.240Z,98632.31
2022-08-03T20:31:32.371Z,98635.22
2022-08-03T20:34:04.072Z,98629.31
2022-08-03T20:36:31.096Z,98632.59
2022-08-03T20:38:58.455Z,98633.81
2022-08-03T20:41:27.280Z,98636.44
2022-08-03T20:43:54.639Z,98639.03
2022-08-03T20:46:29.201Z,98636.22
2022-08-03T20:49:04.009Z,98637.16
2022-08-03T20:51:49.946Z,98636.66
2022-08-03T20:54:30.906Z,98638.41
2022-08-03T20:57:04.326Z,98644.38
2022-08-03T20:59:50.860Z,98636.09
2022-08-03T21:02:29.505Z,98632.25
2022-08-03T21:05:08.675Z,98636.38
2022-08-03T21:08:06.117Z,98636.91
2022-08-03T21:10:39.823Z,98644.75
2022-08-03T21:13:04.791Z,98608.84
2022-08-03T21:13:32.291Z,98633.41
2022-08-03T21:16:13.136Z,98638.34
2022-08-03T21:18:52.823Z,98637.19
2022-08-03T21:21:23.642Z,98630.63
2022-08-03T21:23:54.268Z,98635.41
2022-08-03T21:26:26.175Z,98641.34
2022-08-03T21:28:56.081Z,98643.56
2022-08-03T21:31:26.427Z,98639.53
2022-08-03T21:34:05.574Z,98634.47
2022-08-03T21:36:36.019Z,98642.78
2022-08-03T21:39:08.217Z,98642.97
2022-08-03T21:41:38.044Z,98640.38
2022-08-03T21:44:07.092Z,98636.53
2022-08-03T21:46:42.403Z,98638.94
2022-08-03T21:50:07.566Z,98635.53
2022-08-03T21:52:07.111Z,98635.06
2022-08-03T21:54:42.248Z,98634.38
2022-08-03T21:57:22.327Z,98640.34
2022-08-03T22:00:06.501Z,98643.22
2022-08-03T22:02:39.186Z,98641.72
2022-08-03T22:05:10.049Z,98636.66
2022-08-03T22:07:44.353Z,98638.22
2022-08-03T22:10:13.076Z,98633.81
2022-08-03T22:12:40.961Z,98635.19
2022-08-03T22:15:13.189Z,98631.97
2022-08-03T22:17:55.486Z,98635.03
2022-08-03T22:20:26.015Z,98637.44
2022-08-03T22:22:59.926Z,98648.59
2022-08-03T22:25:34.726Z,98637.44
2022-08-03T22:28:09.112Z,98643.34
2022-08-03T22:30:37.080Z,98647.25
2022-08-03T22:33:11.112Z,98649.97
2022-08-03T22:35:48.592Z,98650.31
2022-08-03T22:38:18.048Z,98654.03
2022-08-03T22:40:48.800Z,98647.78
2022-08-03T22:43:16.620Z,98642.69
2022-08-03T22:46:10.064Z,98647.78
2022-08-03T22:48:41.215Z,98648.13
2022-08-03T22:51:09.853Z,98648.28
2022-08-03T22:53:38.316Z,98658.28
2022-08-03T22:56:06.516Z,98652.22
2022-08-03T22:58:33.572Z,98659.66
2022-08-03T23:01:26.188Z,98653.56
2022-08-03T23:04:02.886Z,98647.47
2022-08-03T23:06:41.550Z,98654.75
2022-08-03T23:09:12.577Z,98655.09
2022-08-03T23:11:46.118Z,98654.44
2022-08-03T23:14:19.596Z,98655.78
2022-08-03T23:16:48.351Z,98649.84
2022-08-03T23:19:25.133Z,98648.53
2022-08-03T23:22:03.152Z,98652.56
2022-08-03T23:24:38.051Z,98652.72
2022-08-03T23:27:07.981Z,98655.81
2022-08-03T23:29:42.975Z,98648.69
2022-08-03T23:32:11.282Z,98647.00
2022-08-03T23:34:58.808Z,98649.88
2022-08-03T23:37:26.703Z,98647.66
2022-08-03T23:39:57.375Z,98648.00
2022-08-03T23:42:25.456Z,98652.91
2022-08-03T23:44:56.498Z,98652.91
2022-08-03T23:47:46.399Z,98652.56
2022-08-03T23:50:14.910Z,98661.84
2022-08-03T23:53:00.730Z,98655.75
2022-08-03T23:56:00.385Z,98655.09
2022-08-03T23:58:40.975Z,98660.31
